sensor_id;sensor_type;location;lat;lon;timestamp;P1;durP1;ratioP1;P2;durP2;ratioP2
2021;SDS011;1015;49.756;6.994;2022-12-29T00:01:16;7.37;;;6.67;;
2021;SDS011;1015;49.756;6.994;2022-12-29T00:03:45;7.90;;;5.40;;
2021;SDS011;1015;49.756;6.994;2022-12-29T00:06:12;7.57;;;6.47;;
2021;SDS011;1015;49.756;6.994;2022-12-29T00:08:39;6.37;;;5.57;;
2021;SDS011;1015;49.756;6.994;2022-12-29T00:11:09;8.00;;;5.50;;
2021;SDS011;1015;49.756;6.994;2022-12-29T00:13:36;5.63;;;5.00;;
2021;SDS011;1015;49.756;6.994;2022-12-29T00:16:21;7.93;;;5.20;;
2021;SDS011;1015;49.756;6.994;2022-12-29T00:18:48;6.80;;;5.10;;
2021;SDS011;1015;49.756;6.994;2022-12-29T00:21:16;6.00;;;5.40;;
2021;SDS011;1015;49.756;6.994;2022-12-29T00:24:01;4.83;;;4.00;;
2021;SDS011;1015;49.756;6.994;2022-12-29T00:26:47;5.30;;;4.80;;
2021;SDS011;1015;49.756;6.994;2022-12-29T00:29:32;7.87;;;5.10;;
2021;SDS011;1015;49.756;6.994;2022-12-29T00:32:17;4.10;;;3.80;;
2021;SDS011;1015;49.756;6.994;2022-12-29T00:35:01;4.40;;;4.00;;
2021;SDS011;1015;49.756;6.994;2022-12-29T00:37:35;3.77;;;3.30;;
2021;SDS011;1015;49.756;6.994;2022-12-29T00:40:19;5.53;;;3.70;;
2021;SDS011;1015;49.756;6.994;2022-12-29T00:43:06;3.97;;;3.63;;
2021;SDS011;1015;49.756;6.994;2022-12-29T00:45:50;4.20;;;3.33;;
2021;SDS011;1015;49.756;6.994;2022-12-29T00:48:17;3.10;;;2.80;;
2021;SDS011;1015;49.756;6.994;2022-12-29T00:51:10;2.53;;;2.33;;
2021;SDS011;1015;49.756;6.994;2022-12-29T00:53:36;3.30;;;2.93;;
2021;SDS011;1015;49.756;6.994;2022-12-29T00:56:03;4.13;;;2.93;;
2021;SDS011;1015;49.756;6.994;2022-12-29T00:58:32;2.90;;;2.70;;
2021;SDS011;1015;49.756;6.994;2022-12-29T01:01:02;3.00;;;2.70;;
2021;SDS011;1015;49.756;6.994;2022-12-29T01:03:30;3.03;;;2.77;;
2021;SDS011;1015;49.756;6.994;2022-12-29T01:05:59;3.30;;;3.00;;
2021;SDS011;1015;49.756;6.994;2022-12-29T01:08:26;2.63;;;2.43;;
2021;SDS011;1015;49.756;6.994;2022-12-29T01:10:57;3.23;;;2.93;;
2021;SDS011;1015;49.756;6.994;2022-12-29T01:13:23;3.47;;;3.17;;
2021;SDS011;1015;49.756;6.994;2022-12-29T01:15:52;3.23;;;2.93;;
2021;SDS011;1015;49.756;6.994;2022-12-29T01:18:20;3.70;;;3.40;;
2021;SDS011;1015;49.756;6.994;2022-12-29T01:20:48;4.00;;;3.60;;
2021;SDS011;1015;49.756;6.994;2022-12-29T01:23:15;4.37;;;3.80;;
2021;SDS011;1015;49.756;6.994;2022-12-29T01:25:42;4.47;;;3.50;;
2021;SDS011;1015;49.756;6.994;2022-12-29T01:28:09;3.80;;;3.50;;
2021;SDS011;1015;49.756;6.994;2022-12-29T01:30:37;4.30;;;3.47;;
2021;SDS011;1015;49.756;6.994;2022-12-29T01:33:05;4.20;;;3.80;;
2021;SDS011;1015;49.756;6.994;2022-12-29T01:35:32;3.50;;;3.30;;
2021;SDS011;1015;49.756;6.994;2022-12-29T01:38:00;3.50;;;3.20;;
2021;SDS011;1015;49.756;6.994;2022-12-29T01:40:27;4.17;;;3.77;;
2021;SDS011;1015;49.756;6.994;2022-12-29T01:42:54;2.90;;;2.63;;
2021;SDS011;1015;49.756;6.994;2022-12-29T01:45:21;4.10;;;3.03;;
2021;SDS011;1015;49.756;6.994;2022-12-29T01:47:49;3.90;;;3.40;;
2021;SDS011;1015;49.756;6.994;2022-12-29T01:50:20;3.80;;;3.37;;
2021;SDS011;1015;49.756;6.994;2022-12-29T01:52:49;2.93;;;2.60;;
2021;SDS011;1015;49.756;6.994;2022-12-29T01:55:18;4.40;;;3.17;;
2021;SDS011;1015;49.756;6.994;2022-12-29T01:57:45;3.17;;;2.87;;
2021;SDS011;1015;49.756;6.994;2022-12-29T02:00:15;2.80;;;2.60;;
2021;SDS011;1015;49.756;6.994;2022-12-29T02:02:44;3.87;;;2.77;;
2021;SDS011;1015;49.756;6.994;2022-12-29T02:05:14;2.93;;;2.73;;
2021;SDS011;1015;49.756;6.994;2022-12-29T02:07:44;2.43;;;2.23;;
2021;SDS011;1015;49.756;6.994;2022-12-29T02:10:11;2.73;;;2.30;;
2021;SDS011;1015;49.756;6.994;2022-12-29T02:12:39;2.60;;;2.40;;
2021;SDS011;1015;49.756;6.994;2022-12-29T02:15:06;3.03;;;2.47;;
2021;SDS011;1015;49.756;6.994;2022-12-29T02:17:38;3.33;;;2.33;;
2021;SDS011;1015;49.756;6.994;2022-12-29T02:20:13;3.00;;;2.37;;
2021;SDS011;1015;49.756;6.994;2022-12-29T02:22:52;2.30;;;2.10;;
2021;SDS011;1015;49.756;6.994;2022-12-29T02:25:41;2.47;;;2.27;;
2021;SDS011;1015;49.756;6.994;2022-12-29T02:28:35;2.70;;;2.50;;
2021;SDS011;1015;49.756;6.994;2022-12-29T02:31:06;2.53;;;2.33;;
2021;SDS011;1015;49.756;6.994;2022-12-29T02:33:38;3.27;;;2.60;;
2021;SDS011;1015;49.756;6.994;2022-12-29T02:36:11;2.90;;;2.60;;
2021;SDS011;1015;49.756;6.994;2022-12-29T02:38:47;3.00;;;2.80;;
2021;SDS011;1015;49.756;6.994;2022-12-29T02:41:18;3.10;;;2.80;;
2021;SDS011;1015;49.756;6.994;2022-12-29T02:43:48;3.53;;;2.70;;
2021;SDS011;1015;49.756;6.994;2022-12-29T02:46:19;3.57;;;3.27;;
2021;SDS011;1015;49.756;6.994;2022-12-29T02:48:47;2.83;;;2.63;;
2021;SDS011;1015;49.756;6.994;2022-12-29T02:51:18;5.60;;;3.30;;
2021;SDS011;1015;49.756;6.994;2022-12-29T02:53:46;3.70;;;3.40;;
2021;SDS011;1015;49.756;6.994;2022-12-29T02:56:32;4.83;;;3.37;;
2021;SDS011;1015;49.756;6.994;2022-12-29T02:58:59;4.43;;;3.20;;
2021;SDS011;1015;49.756;6.994;2022-12-29T03:01:32;6.90;;;3.80;;
2021;SDS011;1015;49.756;6.994;2022-12-29T03:04:10;4.03;;;3.43;;
2021;SDS011;1015;49.756;6.994;2022-12-29T03:06:42;5.27;;;4.07;;
2021;SDS011;1015;49.756;6.994;2022-12-29T03:09:18;3.53;;;3.20;;
2021;SDS011;1015;49.756;6.994;2022-12-29T03:11:48;6.67;;;4.03;;
2021;SDS011;1015;49.756;6.994;2022-12-29T03:14:37;4.37;;;3.37;;
2021;SDS011;1015;49.756;6.994;2022-12-29T03:17:26;3.77;;;3.47;;
2021;SDS011;1015;49.756;6.994;2022-12-29T03:19:55;4.50;;;3.40;;
2021;SDS011;1015;49.756;6.994;2022-12-29T03:22:27;3.73;;;3.27;;
2021;SDS011;1015;49.756;6.994;2022-12-29T03:24:57;7.93;;;3.60;;
2021;SDS011;1015;49.756;6.994;2022-12-29T03:27:27;5.03;;;4.07;;
2021;SDS011;1015;49.756;6.994;2022-12-29T03:29:57;4.13;;;3.03;;
2021;SDS011;1015;49.756;6.994;2022-12-29T03:32:27;3.20;;;2.90;;
2021;SDS011;1015;49.756;6.994;2022-12-29T03:34:55;5.63;;;3.77;;
2021;SDS011;1015;49.756;6.994;2022-12-29T03:37:23;5.10;;;3.57;;
2021;SDS011;1015;49.756;6.994;2022-12-29T03:42:56;4.83;;;3.90;;
2021;SDS011;1015;49.756;6.994;2022-12-29T03:45:24;4.30;;;3.40;;
2021;SDS011;1015;49.756;6.994;2022-12-29T03:47:53;6.13;;;4.00;;
2021;SDS011;1015;49.756;6.994;2022-12-29T03:50:20;5.00;;;3.03;;
2021;SDS011;1015;49.756;6.994;2022-12-29T03:52:47;4.20;;;3.80;;
2021;SDS011;1015;49.756;6.994;2022-12-29T03:55:14;4.87;;;4.10;;
2021;SDS011;1015;49.756;6.994;2022-12-29T03:57:42;4.20;;;3.20;;
2021;SDS011;1015;49.756;6.994;2022-12-29T04:00:09;4.60;;;3.70;;
2021;SDS011;1015;49.756;6.994;2022-12-29T04:02:37;4.90;;;4.37;;
2021;SDS011;1015;49.756;6.994;2022-12-29T04:05:06;5.43;;;3.70;;
2021;SDS011;1015;49.756;6.994;2022-12-29T04:07:33;4.47;;;3.10;;
2021;SDS011;1015;49.756;6.994;2022-12-29T04:10:00;4.10;;;3.67;;
2021;SDS011;1015;49.756;6.994;2022-12-29T04:12:28;3.80;;;3.30;;
2021;SDS011;1015;49.756;6.994;2022-12-29T04:14:55;4.43;;;3.80;;
2021;SDS011;1015;49.756;6.994;2022-12-29T04:17:22;3.97;;;3.57;;
2021;SDS011;1015;49.756;6.994;2022-12-29T04:19:49;4.33;;;3.80;;
2021;SDS011;1015;49.756;6.994;2022-12-29T04:22:38;4.83;;;3.57;;
2021;SDS011;1015;49.756;6.994;2022-12-29T04:25:06;4.03;;;3.63;;
2021;SDS011;1015;49.756;6.994;2022-12-29T04:27:33;3.80;;;3.50;;
2021;SDS011;1015;49.756;6.994;2022-12-29T04:30:00;3.40;;;2.70;;
2021;SDS011;1015;49.756;6.994;2022-12-29T04:32:27;4.20;;;3.80;;
2021;SDS011;1015;49.756;6.994;2022-12-29T04:34:55;3.83;;;3.40;;
2021;SDS011;1015;49.756;6.994;2022-12-29T04:37:22;4.20;;;3.70;;
2021;SDS011;1015;49.756;6.994;2022-12-29T04:39:51;5.07;;;3.93;;
2021;SDS011;1015;49.756;6.994;2022-12-29T04:42:18;7.37;;;4.17;;
2021;SDS011;1015;49.756;6.994;2022-12-29T04:44:45;4.80;;;4.00;;
2021;SDS011;1015;49.756;6.994;2022-12-29T04:47:12;5.30;;;3.93;;
2021;SDS011;1015;49.756;6.994;2022-12-29T04:49:40;4.17;;;3.83;;
2021;SDS011;1015;49.756;6.994;2022-12-29T04:52:07;7.20;;;4.20;;
2021;SDS011;1015;49.756;6.994;2022-12-29T04:54:34;4.93;;;4.17;;
2021;SDS011;1015;49.756;6.994;2022-12-29T04:57:03;5.00;;;3.67;;
2021;SDS011;1015;49.756;6.994;2022-12-29T04:59:30;5.00;;;3.77;;
2021;SDS011;1015;49.756;6.994;2022-12-29T05:01:57;3.70;;;3.40;;
2021;SDS011;1015;49.756;6.994;2022-12-29T05:04:24;5.33;;;4.00;;
2021;SDS011;1015;49.756;6.994;2022-12-29T05:06:51;4.60;;;3.80;;
2021;SDS011;1015;49.756;6.994;2022-12-29T05:09:19;4.50;;;3.93;;
2021;SDS011;1015;49.756;6.994;2022-12-29T05:11:46;5.23;;;4.33;;
2021;SDS011;1015;49.756;6.994;2022-12-29T05:14:14;4.57;;;3.93;;
2021;SDS011;1015;49.756;6.994;2022-12-29T05:16:42;7.40;;;4.00;;
2021;SDS011;1015;49.756;6.994;2022-12-29T05:19:09;4.13;;;3.60;;
2021;SDS011;1015;49.756;6.994;2022-12-29T05:21:36;5.70;;;3.70;;
2021;SDS011;1015;49.756;6.994;2022-12-29T05:24:04;5.23;;;3.77;;
2021;SDS011;1015;49.756;6.994;2022-12-29T05:26:31;4.67;;;3.60;;
2021;SDS011;1015;49.756;6.994;2022-12-29T05:28:58;5.47;;;3.87;;
2021;SDS011;1015;49.756;6.994;2022-12-29T05:31:27;4.40;;;4.00;;
2021;SDS011;1015;49.756;6.994;2022-12-29T05:33:54;5.63;;;3.03;;
2021;SDS011;1015;49.756;6.994;2022-12-29T05:36:21;3.77;;;3.47;;
2021;SDS011;1015;49.756;6.994;2022-12-29T05:38:49;2.97;;;2.47;;
2021;SDS011;1015;49.756;6.994;2022-12-29T05:41:16;3.17;;;2.90;;
2021;SDS011;1015;49.756;6.994;2022-12-29T05:43:43;3.10;;;2.80;;
2021;SDS011;1015;49.756;6.994;2022-12-29T05:46:10;4.83;;;2.53;;
2021;SDS011;1015;49.756;6.994;2022-12-29T05:48:39;3.50;;;2.50;;
2021;SDS011;1015;49.756;6.994;2022-12-29T05:51:06;3.73;;;2.40;;
2021;SDS011;1015;49.756;6.994;2022-12-29T05:53:33;3.00;;;2.00;;
2021;SDS011;1015;49.756;6.994;2022-12-29T05:56:01;2.53;;;2.00;;
2021;SDS011;1015;49.756;6.994;2022-12-29T05:58:28;2.40;;;2.20;;
2021;SDS011;1015;49.756;6.994;2022-12-29T06:00:55;2.37;;;2.10;;
2021;SDS011;1015;49.756;6.994;2022-12-29T06:03:23;2.47;;;2.10;;
2021;SDS011;1015;49.756;6.994;2022-12-29T06:05:52;2.97;;;2.67;;
2021;SDS011;1015;49.756;6.994;2022-12-29T06:08:19;2.80;;;2.50;;
2021;SDS011;1015;49.756;6.994;2022-12-29T06:10:46;3.40;;;2.60;;
2021;SDS011;1015;49.756;6.994;2022-12-29T06:13:13;3.27;;;2.50;;
2021;SDS011;1015;49.756;6.994;2022-12-29T06:15:41;3.73;;;2.53;;
2021;SDS011;1015;49.756;6.994;2022-12-29T06:18:08;3.47;;;3.17;;
2021;SDS011;1015;49.756;6.994;2022-12-29T06:20:35;3.30;;;3.00;;
2021;SDS011;1015;49.756;6.994;2022-12-29T06:23:04;3.57;;;2.97;;
2021;SDS011;1015;49.756;6.994;2022-12-29T06:25:31;3.70;;;3.30;;
2021;SDS011;1015;49.756;6.994;2022-12-29T06:27:59;3.77;;;3.10;;
2021;SDS011;1015;49.756;6.994;2022-12-29T06:30:26;4.13;;;3.60;;
2021;SDS011;1015;49.756;6.994;2022-12-29T06:32:54;3.30;;;3.00;;
2021;SDS011;1015;49.756;6.994;2022-12-29T06:35:21;4.57;;;3.37;;
2021;SDS011;1015;49.756;6.994;2022-12-29T06:37:48;3.20;;;2.90;;
2021;SDS011;1015;49.756;6.994;2022-12-29T06:40:17;3.60;;;3.30;;
2021;SDS011;1015;49.756;6.994;2022-12-29T06:42:44;3.40;;;3.10;;
2021;SDS011;1015;49.756;6.994;2022-12-29T06:45:11;5.93;;;2.93;;
2021;SDS011;1015;49.756;6.994;2022-12-29T06:47:39;3.83;;;3.17;;
2021;SDS011;1015;49.756;6.994;2022-12-29T06:50:06;2.80;;;2.60;;
2021;SDS011;1015;49.756;6.994;2022-12-29T06:52:34;3.03;;;2.70;;
2021;SDS011;1015;49.756;6.994;2022-12-29T06:55:01;2.83;;;2.60;;
2021;SDS011;1015;49.756;6.994;2022-12-29T06:57:30;2.67;;;2.47;;
2021;SDS011;1015;49.756;6.994;2022-12-29T06:59:57;3.17;;;2.73;;
2021;SDS011;1015;49.756;6.994;2022-12-29T07:02:24;2.50;;;2.27;;
2021;SDS011;1015;49.756;6.994;2022-12-29T07:04:51;5.10;;;3.20;;
2021;SDS011;1015;49.756;6.994;2022-12-29T07:07:19;3.47;;;2.40;;
2021;SDS011;1015;49.756;6.994;2022-12-29T07:09:46;4.10;;;2.90;;
2021;SDS011;1015;49.756;6.994;2022-12-29T07:12:13;3.83;;;2.70;;
2021;SDS011;1015;49.756;6.994;2022-12-29T07:14:42;3.70;;;2.60;;
2021;SDS011;1015;49.756;6.994;2022-12-29T07:17:10;6.90;;;2.90;;
2021;SDS011;1015;49.756;6.994;2022-12-29T07:19:37;3.70;;;2.37;;
2021;SDS011;1015;49.756;6.994;2022-12-29T07:22:06;2.40;;;2.20;;
2021;SDS011;1015;49.756;6.994;2022-12-29T07:24:33;2.13;;;1.90;;
2021;SDS011;1015;49.756;6.994;2022-12-29T07:27:00;2.77;;;2.30;;
2021;SDS011;1015;49.756;6.994;2022-12-29T07:29:27;3.43;;;2.50;;
2021;SDS011;1015;49.756;6.994;2022-12-29T07:31:56;3.40;;;2.83;;
2021;SDS011;1015;49.756;6.994;2022-12-29T07:34:24;3.00;;;2.40;;
2021;SDS011;1015;49.756;6.994;2022-12-29T07:36:51;3.17;;;2.40;;
2021;SDS011;1015;49.756;6.994;2022-12-29T07:39:18;2.77;;;2.40;;
2021;SDS011;1015;49.756;6.994;2022-12-29T07:41:46;3.13;;;2.83;;
2021;SDS011;1015;49.756;6.994;2022-12-29T07:44:13;5.37;;;3.33;;
2021;SDS011;1015;49.756;6.994;2022-12-29T07:46:41;3.37;;;3.07;;
2021;SDS011;1015;49.756;6.994;2022-12-29T07:49:09;3.50;;;3.20;;
2021;SDS011;1015;49.756;6.994;2022-12-29T07:51:37;4.30;;;3.90;;
2021;SDS011;1015;49.756;6.994;2022-12-29T07:54:04;3.97;;;3.57;;
2021;SDS011;1015;49.756;6.994;2022-12-29T07:56:31;5.33;;;3.50;;
2021;SDS011;1015;49.756;6.994;2022-12-29T07:58:58;4.53;;;2.87;;
2021;SDS011;1015;49.756;6.994;2022-12-29T08:01:26;4.70;;;4.30;;
2021;SDS011;1015;49.756;6.994;2022-12-29T08:03:53;3.83;;;3.53;;
2021;SDS011;1015;49.756;6.994;2022-12-29T08:06:22;3.90;;;3.27;;
2021;SDS011;1015;49.756;6.994;2022-12-29T08:08:49;3.20;;;2.90;;
2021;SDS011;1015;49.756;6.994;2022-12-29T08:11:16;3.20;;;2.40;;
2021;SDS011;1015;49.756;6.994;2022-12-29T08:13:44;4.07;;;1.97;;
2021;SDS011;1015;49.756;6.994;2022-12-29T08:16:11;1.50;;;1.40;;
2021;SDS011;1015;49.756;6.994;2022-12-29T08:18:38;2.00;;;1.80;;
2021;SDS011;1015;49.756;6.994;2022-12-29T08:21:05;1.70;;;1.60;;
2021;SDS011;1015;49.756;6.994;2022-12-29T08:23:34;2.33;;;1.30;;
2021;SDS011;1015;49.756;6.994;2022-12-29T08:26:02;1.50;;;1.40;;
2021;SDS011;1015;49.756;6.994;2022-12-29T08:28:30;2.40;;;1.33;;
2021;SDS011;1015;49.756;6.994;2022-12-29T08:30:58;2.13;;;1.40;;
2021;SDS011;1015;49.756;6.994;2022-12-29T08:33:25;1.27;;;1.17;;
2021;SDS011;1015;49.756;6.994;2022-12-29T08:35:58;1.20;;;1.00;;
2021;SDS011;1015;49.756;6.994;2022-12-29T08:38:26;1.10;;;1.00;;
2021;SDS011;1015;49.756;6.994;2022-12-29T08:40:55;2.30;;;1.00;;
2021;SDS011;1015;49.756;6.994;2022-12-29T08:43:22;2.13;;;1.10;;
2021;SDS011;1015;49.756;6.994;2022-12-29T08:45:50;1.33;;;0.90;;
2021;SDS011;1015;49.756;6.994;2022-12-29T08:48:17;1.10;;;0.90;;
2021;SDS011;1015;49.756;6.994;2022-12-29T08:50:47;1.40;;;1.20;;
2021;SDS011;1015;49.756;6.994;2022-12-29T08:53:14;1.87;;;1.50;;
2021;SDS011;1015;49.756;6.994;2022-12-29T08:55:44;1.73;;;1.10;;
2021;SDS011;1015;49.756;6.994;2022-12-29T08:58:12;2.50;;;0.73;;
2021;SDS011;1015;49.756;6.994;2022-12-29T09:00:41;3.50;;;1.00;;
2021;SDS011;1015;49.756;6.994;2022-12-29T09:03:09;1.43;;;0.70;;
2021;SDS011;1015;49.756;6.994;2022-12-29T09:05:36;1.93;;;1.00;;
2021;SDS011;1015;49.756;6.994;2022-12-29T09:08:03;3.80;;;1.20;;
2021;SDS011;1015;49.756;6.994;2022-12-29T09:10:31;2.60;;;1.00;;
2021;SDS011;1015;49.756;6.994;2022-12-29T09:12:58;2.60;;;0.97;;
2021;SDS011;1015;49.756;6.994;2022-12-29T09:15:26;1.50;;;0.80;;
2021;SDS011;1015;49.756;6.994;2022-12-29T09:17:54;2.83;;;1.10;;
2021;SDS011;1015;49.756;6.994;2022-12-29T09:20:21;1.77;;;0.70;;
2021;SDS011;1015;49.756;6.994;2022-12-29T09:22:48;1.43;;;0.77;;
2021;SDS011;1015;49.756;6.994;2022-12-29T09:25:17;1.80;;;0.90;;
2021;SDS011;1015;49.756;6.994;2022-12-29T09:27:44;2.73;;;0.93;;
2021;SDS011;1015;49.756;6.994;2022-12-29T09:30:14;4.03;;;0.67;;
2021;SDS011;1015;49.756;6.994;2022-12-29T09:32:43;1.90;;;0.90;;
2021;SDS011;1015;49.756;6.994;2022-12-29T09:35:10;2.47;;;0.90;;
2021;SDS011;1015;49.756;6.994;2022-12-29T09:37:37;2.80;;;0.83;;
2021;SDS011;1015;49.756;6.994;2022-12-29T09:40:05;2.43;;;1.10;;
2021;SDS011;1015;49.756;6.994;2022-12-29T09:42:35;3.70;;;1.00;;
2021;SDS011;1015;49.756;6.994;2022-12-29T09:45:06;5.70;;;0.93;;
2021;SDS011;1015;49.756;6.994;2022-12-29T09:47:37;2.00;;;0.80;;
2021;SDS011;1015;49.756;6.994;2022-12-29T09:50:12;1.73;;;1.20;;
2021;SDS011;1015;49.756;6.994;2022-12-29T09:52:42;4.27;;;1.20;;
2021;SDS011;1015;49.756;6.994;2022-12-29T09:55:13;2.60;;;1.00;;
2021;SDS011;1015;49.756;6.994;2022-12-29T09:57:42;6.33;;;1.20;;
2021;SDS011;1015;49.756;6.994;2022-12-29T10:00:12;2.17;;;1.10;;
2021;SDS011;1015;49.756;6.994;2022-12-29T10:02:42;3.57;;;1.00;;
2021;SDS011;1015;49.756;6.994;2022-12-29T10:05:18;4.00;;;1.40;;
2021;SDS011;1015;49.756;6.994;2022-12-29T10:07:49;2.90;;;1.17;;
2021;SDS011;1015;49.756;6.994;2022-12-29T10:10:23;3.50;;;1.27;;
2021;SDS011;1015;49.756;6.994;2022-12-29T10:12:54;3.00;;;1.20;;
2021;SDS011;1015;49.756;6.994;2022-12-29T10:15:28;3.30;;;1.30;;
2021;SDS011;1015;49.756;6.994;2022-12-29T10:18:02;4.37;;;1.03;;
2021;SDS011;1015;49.756;6.994;2022-12-29T10:20:36;4.57;;;1.63;;
2021;SDS011;1015;49.756;6.994;2022-12-29T10:23:10;3.00;;;1.20;;
2021;SDS011;1015;49.756;6.994;2022-12-29T10:25:40;3.03;;;1.40;;
2021;SDS011;1015;49.756;6.994;2022-12-29T10:28:14;2.97;;;1.10;;
2021;SDS011;1015;49.756;6.994;2022-12-29T10:30:42;2.70;;;1.27;;
2021;SDS011;1015;49.756;6.994;2022-12-29T10:33:11;4.57;;;1.03;;
2021;SDS011;1015;49.756;6.994;2022-12-29T10:35:44;3.00;;;1.07;;
2021;SDS011;1015;49.756;6.994;2022-12-29T10:38:15;1.57;;;1.00;;
2021;SDS011;1015;49.756;6.994;2022-12-29T10:40:46;2.50;;;1.17;;
2021;SDS011;1015;49.756;6.994;2022-12-29T10:43:22;3.17;;;0.90;;
2021;SDS011;1015;49.756;6.994;2022-12-29T10:45:51;3.10;;;1.10;;
2021;SDS011;1015;49.756;6.994;2022-12-29T10:48:19;3.13;;;1.07;;
2021;SDS011;1015;49.756;6.994;2022-12-29T10:50:48;2.80;;;0.70;;
2021;SDS011;1015;49.756;6.994;2022-12-29T10:53:18;5.03;;;0.90;;
2021;SDS011;1015;49.756;6.994;2022-12-29T10:55:46;1.77;;;0.80;;
2021;SDS011;1015;49.756;6.994;2022-12-29T10:58:14;3.33;;;1.00;;
2021;SDS011;1015;49.756;6.994;2022-12-29T11:00:42;2.80;;;0.93;;
2021;SDS011;1015;49.756;6.994;2022-12-29T11:03:14;1.80;;;0.83;;
2021;SDS011;1015;49.756;6.994;2022-12-29T11:05:45;2.07;;;1.17;;
2021;SDS011;1015;49.756;6.994;2022-12-29T11:08:16;2.90;;;1.30;;
2021;SDS011;1015;49.756;6.994;2022-12-29T11:10:47;2.37;;;0.97;;
2021;SDS011;1015;49.756;6.994;2022-12-29T11:13:25;5.80;;;1.30;;
2021;SDS011;1015;49.756;6.994;2022-12-29T11:15:52;2.83;;;1.30;;
2021;SDS011;1015;49.756;6.994;2022-12-29T11:18:21;2.20;;;1.07;;
2021;SDS011;1015;49.756;6.994;2022-12-29T11:20:49;4.83;;;1.07;;
2021;SDS011;1015;49.756;6.994;2022-12-29T11:23:23;2.27;;;0.83;;
2021;SDS011;1015;49.756;6.994;2022-12-29T11:28:33;2.17;;;0.90;;
2021;SDS011;1015;49.756;6.994;2022-12-29T11:31:01;2.40;;;1.30;;
2021;SDS011;1015;49.756;6.994;2022-12-29T11:33:29;1.70;;;1.10;;
2021;SDS011;1015;49.756;6.994;2022-12-29T11:35:57;4.40;;;1.00;;
2021;SDS011;1015;49.756;6.994;2022-12-29T11:38:29;3.00;;;1.00;;
2021;SDS011;1015;49.756;6.994;2022-12-29T11:40:58;2.13;;;1.07;;
2021;SDS011;1015;49.756;6.994;2022-12-29T11:43:26;3.17;;;1.00;;
2021;SDS011;1015;49.756;6.994;2022-12-29T11:45:56;1.67;;;1.00;;
2021;SDS011;1015;49.756;6.994;2022-12-29T11:48:23;1.77;;;0.90;;
2021;SDS011;1015;49.756;6.994;2022-12-29T11:50:51;2.60;;;1.23;;
2021;SDS011;1015;49.756;6.994;2022-12-29T11:53:20;4.10;;;1.83;;
2021;SDS011;1015;49.756;6.994;2022-12-29T11:55:53;3.10;;;1.20;;
2021;SDS011;1015;49.756;6.994;2022-12-29T11:58:27;2.33;;;1.20;;
2021;SDS011;1015;49.756;6.994;2022-12-29T12:00:57;2.17;;;1.40;;
2021;SDS011;1015;49.756;6.994;2022-12-29T12:03:27;3.80;;;1.30;;
2021;SDS011;1015;49.756;6.994;2022-12-29T12:06:00;2.33;;;1.20;;
2021;SDS011;1015;49.756;6.994;2022-12-29T12:08:31;2.20;;;1.10;;
2021;SDS011;1015;49.756;6.994;2022-12-29T12:11:04;2.60;;;1.03;;
2021;SDS011;1015;49.756;6.994;2022-12-29T12:13:33;2.43;;;1.20;;
2021;SDS011;1015;49.756;6.994;2022-12-29T12:16:04;3.40;;;1.00;;
2021;SDS011;1015;49.756;6.994;2022-12-29T12:18:40;2.43;;;1.00;;
2021;SDS011;1015;49.756;6.994;2022-12-29T12:21:16;4.60;;;1.20;;
2021;SDS011;1015;49.756;6.994;2022-12-29T12:26:34;3.10;;;1.20;;
2021;SDS011;1015;49.756;6.994;2022-12-29T12:29:04;3.33;;;0.97;;
2021;SDS011;1015;49.756;6.994;2022-12-29T12:31:39;2.30;;;1.10;;
2021;SDS011;1015;49.756;6.994;2022-12-29T12:34:10;3.07;;;1.10;;
2021;SDS011;1015;49.756;6.994;2022-12-29T12:39:33;1.50;;;0.83;;
2021;SDS011;1015;49.756;6.994;2022-12-29T12:42:09;3.40;;;1.00;;
2021;SDS011;1015;49.756;6.994;2022-12-29T12:44:43;1.40;;;0.90;;
2021;SDS011;1015;49.756;6.994;2022-12-29T12:47:19;4.87;;;1.13;;
2021;SDS011;1015;49.756;6.994;2022-12-29T12:49:57;5.23;;;1.20;;
2021;SDS011;1015;49.756;6.994;2022-12-29T12:52:32;1.90;;;1.00;;
2021;SDS011;1015;49.756;6.994;2022-12-29T12:55:04;1.70;;;1.00;;
2021;SDS011;1015;49.756;6.994;2022-12-29T12:57:40;1.80;;;1.00;;
2021;SDS011;1015;49.756;6.994;2022-12-29T13:00:10;2.07;;;0.87;;
2021;SDS011;1015;49.756;6.994;2022-12-29T13:02:41;2.87;;;1.50;;
2021;SDS011;1015;49.756;6.994;2022-12-29T13:08:00;6.00;;;1.13;;
2021;SDS011;1015;49.756;6.994;2022-12-29T13:10:31;2.90;;;1.17;;
2021;SDS011;1015;49.756;6.994;2022-12-29T13:13:14;2.60;;;1.00;;
2021;SDS011;1015;49.756;6.994;2022-12-29T13:15:46;3.13;;;1.20;;
2021;SDS011;1015;49.756;6.994;2022-12-29T13:18:20;5.00;;;1.17;;
2021;SDS011;1015;49.756;6.994;2022-12-29T13:20:50;5.73;;;1.30;;
2021;SDS011;1015;49.756;6.994;2022-12-29T13:23:21;4.50;;;1.47;;
2021;SDS011;1015;49.756;6.994;2022-12-29T13:25:53;2.53;;;0.90;;
2021;SDS011;1015;49.756;6.994;2022-12-29T13:28:25;4.43;;;1.00;;
2021;SDS011;1015;49.756;6.994;2022-12-29T13:30:56;2.37;;;1.07;;
2021;SDS011;1015;49.756;6.994;2022-12-29T13:33:26;1.80;;;1.00;;
2021;SDS011;1015;49.756;6.994;2022-12-29T13:35:56;3.67;;;1.17;;
2021;SDS011;1015;49.756;6.994;2022-12-29T13:38:26;2.90;;;0.90;;
2021;SDS011;1015;49.756;6.994;2022-12-29T13:40:56;3.03;;;1.23;;
2021;SDS011;1015;49.756;6.994;2022-12-29T13:43:27;6.13;;;1.57;;
2021;SDS011;1015;49.756;6.994;2022-12-29T13:45:57;2.13;;;0.83;;
2021;SDS011;1015;49.756;6.994;2022-12-29T13:48:27;3.53;;;1.07;;
2021;SDS011;1015;49.756;6.994;2022-12-29T13:50:58;4.00;;;1.13;;
2021;SDS011;1015;49.756;6.994;2022-12-29T13:53:28;4.30;;;1.27;;
2021;SDS011;1015;49.756;6.994;2022-12-29T13:56:03;4.87;;;1.40;;
2021;SDS011;1015;49.756;6.994;2022-12-29T13:58:36;3.60;;;1.10;;
2021;SDS011;1015;49.756;6.994;2022-12-29T14:01:07;3.20;;;0.90;;
2021;SDS011;1015;49.756;6.994;2022-12-29T14:03:45;2.83;;;1.10;;
2021;SDS011;1015;49.756;6.994;2022-12-29T14:06:15;3.70;;;1.07;;
2021;SDS011;1015;49.756;6.994;2022-12-29T14:08:44;4.90;;;0.93;;
2021;SDS011;1015;49.756;6.994;2022-12-29T14:11:12;4.37;;;1.07;;
2021;SDS011;1015;49.756;6.994;2022-12-29T14:13:43;2.00;;;0.90;;
2021;SDS011;1015;49.756;6.994;2022-12-29T14:16:20;4.00;;;0.90;;
2021;SDS011;1015;49.756;6.994;2022-12-29T14:18:51;4.63;;;1.17;;
2021;SDS011;1015;49.756;6.994;2022-12-29T14:21:20;3.33;;;1.03;;
2021;SDS011;1015;49.756;6.994;2022-12-29T14:23:48;4.10;;;1.30;;
2021;SDS011;1015;49.756;6.994;2022-12-29T14:26:17;4.67;;;1.20;;
2021;SDS011;1015;49.756;6.994;2022-12-29T14:28:46;2.50;;;1.20;;
2021;SDS011;1015;49.756;6.994;2022-12-29T14:31:33;3.33;;;1.20;;
2021;SDS011;1015;49.756;6.994;2022-12-29T14:34:15;3.57;;;1.00;;
2021;SDS011;1015;49.756;6.994;2022-12-29T14:36:51;3.53;;;1.27;;
2021;SDS011;1015;49.756;6.994;2022-12-29T14:39:32;3.57;;;1.20;;
2021;SDS011;1015;49.756;6.994;2022-12-29T14:42:01;4.23;;;1.17;;
2021;SDS011;1015;49.756;6.994;2022-12-29T14:44:31;2.67;;;1.30;;
2021;SDS011;1015;49.756;6.994;2022-12-29T14:47:00;3.53;;;1.53;;
2021;SDS011;1015;49.756;6.994;2022-12-29T14:52:20;2.90;;;1.30;;
2021;SDS011;1015;49.756;6.994;2022-12-29T14:54:50;4.43;;;1.00;;
2021;SDS011;1015;49.756;6.994;2022-12-29T14:57:22;3.00;;;1.13;;
2021;SDS011;1015;49.756;6.994;2022-12-29T14:59:53;6.27;;;2.20;;
2021;SDS011;1015;49.756;6.994;2022-12-29T15:02:23;3.57;;;1.20;;
2021;SDS011;1015;49.756;6.994;2022-12-29T15:04:51;3.80;;;1.40;;
2021;SDS011;1015;49.756;6.994;2022-12-29T15:07:20;5.40;;;1.43;;
2021;SDS011;1015;49.756;6.994;2022-12-29T15:09:50;3.53;;;1.13;;
2021;SDS011;1015;49.756;6.994;2022-12-29T15:12:20;3.87;;;1.33;;
2021;SDS011;1015;49.756;6.994;2022-12-29T15:14:49;5.90;;;1.23;;
2021;SDS011;1015;49.756;6.994;2022-12-29T15:17:23;2.80;;;1.10;;
2021;SDS011;1015;49.756;6.994;2022-12-29T15:19:51;4.43;;;1.33;;
2021;SDS011;1015;49.756;6.994;2022-12-29T15:22:18;3.10;;;1.03;;
2021;SDS011;1015;49.756;6.994;2022-12-29T15:24:45;4.20;;;1.53;;
2021;SDS011;1015;49.756;6.994;2022-12-29T15:27:13;4.60;;;1.43;;
2021;SDS011;1015;49.756;6.994;2022-12-29T15:29:41;2.90;;;1.37;;
2021;SDS011;1015;49.756;6.994;2022-12-29T15:32:16;5.90;;;1.53;;
2021;SDS011;1015;49.756;6.994;2022-12-29T15:34:45;2.40;;;1.03;;
2021;SDS011;1015;49.756;6.994;2022-12-29T15:37:17;5.40;;;1.70;;
2021;SDS011;1015;49.756;6.994;2022-12-29T15:39:45;4.87;;;1.50;;
2021;SDS011;1015;49.756;6.994;2022-12-29T15:42:20;3.63;;;1.50;;
2021;SDS011;1015;49.756;6.994;2022-12-29T15:44:50;4.77;;;1.70;;
2021;SDS011;1015;49.756;6.994;2022-12-29T15:47:18;4.83;;;1.60;;
2021;SDS011;1015;49.756;6.994;2022-12-29T15:49:48;65.00;;;21.07;;